sensor_id;sensor_type;location;lat;lon;timestamp;pressure;altitude;pressure_sealevel;temperature;humidity
12913;BME280;6524;51.368;11.984;2023-04-23T02:58:41;99421.28;;;13.10;51.61
12913;BME280;6524;51.368;11.984;2023-04-23T03:03:42;99424.34;;;13.44;51.73
12913;BME280;6524;51.368;11.984;2023-04-23T03:08:42;99421.44;;;13.37;52.57
12913;BME280;6524;51.368;11.984;2023-04-23T03:13:43;99419.59;;;13.47;52.88
12913;BME280;6524;51.368;11.984;2023-04-23T03:18:43;99418.88;;;13.45;53.20
12913;BME280;6524;51.368;11.984;2023-04-23T03:23:47;99427.13;;;13.42;54.11
12913;BME280;6524;51.368;11.984;2023-04-23T03:28:47;99426.31;;;13.13;55.79
12913;BME280;6524;51.368;11.984;2023-04-23T03:33:47;99420.47;;;13.09;56.38
12913;BME280;6524;51.368;11.984;2023-04-23T03:38:48;99423.13;;;13.09;57.96
12913;BME280;6524;51.368;11.984;2023-04-23T03:43:48;99420.16;;;13.02;57.96
12913;BME280;6524;51.368;11.984;2023-04-23T03:48:49;99420.59;;;12.98;59.34
12913;BME280;6524;51.368;11.984;2023-04-23T03:53:50;99412.09;;;12.94;60.80
12913;BME280;6524;51.368;11.984;2023-04-23T03:58:51;99415.44;;;13.16;61.12
12913;BME280;6524;51.368;11.984;2023-04-23T04:03:51;99416.25;;;13.16;60.94
12913;BME280;6524;51.368;11.984;2023-04-23T04:08:51;99417.94;;;13.17;61.20
12913;BME280;6524;51.368;11.984;2023-04-23T04:13:52;99419.22;;;12.84;61.43
12913;BME280;6524;51.368;11.984;2023-04-23T04:18:52;99421.91;;;12.34;62.61
12913;BME280;6524;51.368;11.984;2023-04-23T04:23:52;99418.66;;;12.21;62.83
12913;BME280;6524;51.368;11.984;2023-04-23T04:28:53;99430.41;;;12.38;61.30
12913;BME280;6524;51.368;11.984;2023-04-23T04:33:54;99429.09;;;12.63;60.95
12913;BME280;6524;51.368;11.984;2023-04-23T04:38:54;99427.94;;;12.55;61.24
12913;BME280;6524;51.368;11.984;2023-04-23T04:43:57;99432.66;;;12.42;62.15
12913;BME280;6524;51.368;11.984;2023-04-23T04:48:57;99423.16;;;12.49;62.06
12913;BME280;6524;51.368;11.984;2023-04-23T04:53:58;99437.88;;;12.53;60.98
12913;BME280;6524;51.368;11.984;2023-04-23T04:58:58;99433.97;;;12.58;60.95
12913;BME280;6524;51.368;11.984;2023-04-23T05:03:58;99438.53;;;12.55;61.66
12913;BME280;6524;51.368;11.984;2023-04-23T05:08:59;99441.34;;;12.54;62.20
12913;BME280;6524;51.368;11.984;2023-04-23T05:13:59;99442.47;;;12.71;61.98
12913;BME280;6524;51.368;11.984;2023-04-23T05:18:59;99440.97;;;12.68;61.33
12913;BME280;6524;51.368;11.984;2023-04-23T05:24:00;99449.25;;;12.44;62.52
12913;BME280;6524;51.368;11.984;2023-04-23T05:29:00;99457.25;;;12.54;62.72
12913;BME280;6524;51.368;11.984;2023-04-23T05:34:01;99462.53;;;12.54;62.64
12913;BME280;6524;51.368;11.984;2023-04-23T05:39:01;99462.81;;;12.61;62.58
12913;BME280;6524;51.368;11.984;2023-04-23T05:44:01;99459.88;;;12.54;62.93
12913;BME280;6524;51.368;11.984;2023-04-23T05:49:02;99465.66;;;12.88;62.14
12913;BME280;6524;51.368;11.984;2023-04-23T05:54:02;99474.59;;;13.07;61.18
12913;BME280;6524;51.368;11.984;2023-04-23T05:59:02;99480.72;;;12.97;61.40
12913;BME280;6524;51.368;11.984;2023-04-23T06:04:03;99490.75;;;13.33;61.13
12913;BME280;6524;51.368;11.984;2023-04-23T06:09:03;99495.94;;;13.54;60.89
12913;BME280;6524;51.368;11.984;2023-04-23T06:14:04;99496.34;;;13.59;60.52
12913;BME280;6524;51.368;11.984;2023-04-23T06:19:05;99492.44;;;12.95;63.05
12913;BME280;6524;51.368;11.984;2023-04-23T06:24:06;99498.84;;;13.21;63.10
12913;BME280;6524;51.368;11.984;2023-04-23T06:29:26;99500.53;;;13.13;64.15
12913;BME280;6524;51.368;11.984;2023-04-23T06:34:27;99509.44;;;12.92;64.75
12913;BME280;6524;51.368;11.984;2023-04-23T06:39:27;99509.19;;;12.15;67.25
12913;BME280;6524;51.368;11.984;2023-04-23T06:44:28;99506.56;;;12.55;66.51
12913;BME280;6524;51.368;11.984;2023-04-23T06:49:29;99500.03;;;11.67;68.00
12913;BME280;6524;51.368;11.984;2023-04-23T06:54:29;99504.84;;;11.83;67.34
12913;BME280;6524;51.368;11.984;2023-04-23T06:59:30;99508.84;;;12.29;67.46
12913;BME280;6524;51.368;11.984;2023-04-23T07:04:30;99515.53;;;11.60;68.70
12913;BME280;6524;51.368;11.984;2023-04-23T07:09:31;99509.50;;;11.70;68.42
12913;BME280;6524;51.368;11.984;2023-04-23T07:14:32;99511.31;;;11.90;68.03
12913;BME280;6524;51.368;11.984;2023-04-23T07:19:32;99519.06;;;12.43;67.09
12913;BME280;6524;51.368;11.984;2023-04-23T07:24:33;99527.81;;;12.03;67.82
12913;BME280;6524;51.368;11.984;2023-04-23T07:29:33;99530.66;;;11.70;68.38
12913;BME280;6524;51.368;11.984;2023-04-23T07:34:34;99537.34;;;11.53;69.27
12913;BME280;6524;51.368;11.984;2023-04-23T07:39:36;99529.84;;;11.37;66.77
12913;BME280;6524;51.368;11.984;2023-04-23T07:44:36;99530.50;;;11.50;63.78
12913;BME280;6524;51.368;11.984;2023-04-23T07:49:37;99532.38;;;11.59;61.74
12913;BME280;6524;51.368;11.984;2023-04-23T07:54:38;99532.44;;;11.48;60.65
12913;BME280;6524;51.368;11.984;2023-04-23T07:59:38;99539.44;;;11.91;60.43
12913;BME280;6524;51.368;11.984;2023-04-23T08:04:39;99533.53;;;12.39;58.01
12913;BME280;6524;51.368;11.984;2023-04-23T08:09:41;99552.66;;;12.83;56.72
12913;BME280;6524;51.368;11.984;2023-04-23T08:14:42;99545.69;;;12.82;55.46
12913;BME280;6524;51.368;11.984;2023-04-23T08:19:43;99552.69;;;13.02;55.95
12913;BME280;6524;51.368;11.984;2023-04-23T08:24:46;99553.81;;;12.90;56.31
12913;BME280;6524;51.368;11.984;2023-04-23T08:29:47;99561.03;;;12.78;55.82
12913;BME280;6524;51.368;11.984;2023-04-23T08:34:47;99569.09;;;12.77;56.34
12913;BME280;6524;51.368;11.984;2023-04-23T08:39:48;99573.78;;;12.54;56.09
12913;BME280;6524;51.368;11.984;2023-04-23T08:44:50;99579.25;;;12.41;56.05
12913;BME280;6524;51.368;11.984;2023-04-23T08:49:53;99585.97;;;12.45;56.10
12913;BME280;6524;51.368;11.984;2023-04-23T08:55:00;99593.38;;;12.82;54.44
12913;BME280;6524;51.368;11.984;2023-04-23T09:00:02;99585.53;;;13.99;51.98
12913;BME280;6524;51.368;11.984;2023-04-23T09:05:05;99587.13;;;15.21;48.64
12913;BME280;6524;51.368;11.984;2023-04-23T09:10:08;99591.44;;;16.72;43.44
12913;BME280;6524;51.368;11.984;2023-04-23T09:15:11;99596.69;;;17.73;40.02
12913;BME280;6524;51.368;11.984;2023-04-23T09:20:14;99607.06;;;17.76;38.37
12913;BME280;6524;51.368;11.984;2023-04-23T09:25:18;99608.84;;;18.49;38.23
12913;BME280;6524;51.368;11.984;2023-04-23T09:30:19;99601.22;;;18.69;37.53
12913;BME280;6524;51.368;11.984;2023-04-23T09:35:29;99600.69;;;19.67;37.62
12913;BME280;6524;51.368;11.984;2023-04-23T09:40:34;99597.69;;;19.16;36.90
12913;BME280;6524;51.368;11.984;2023-04-23T09:45:35;99598.19;;;19.12;37.17
12913;BME280;6524;51.368;11.984;2023-04-23T09:50:38;99602.59;;;19.05;37.45
12913;BME280;6524;51.368;11.984;2023-04-23T09:55:40;99580.91;;;19.91;36.49
12913;BME280;6524;51.368;11.984;2023-04-23T10:00:42;99577.66;;;19.58;37.14
12913;BME280;6524;51.368;11.984;2023-04-23T10:05:43;99574.81;;;19.98;35.30
12913;BME280;6524;51.368;11.984;2023-04-23T10:10:44;99581.97;;;20.20;35.36
12913;BME280;6524;51.368;11.984;2023-04-23T10:15:46;99585.91;;;20.62;35.07
12913;BME280;6524;51.368;11.984;2023-04-23T10:20:48;99584.50;;;20.66;34.18
12913;BME280;6524;51.368;11.984;2023-04-23T10:25:52;99583.53;;;21.40;34.45
12913;BME280;6524;51.368;11.984;2023-04-23T10:30:55;99575.84;;;21.37;32.51
12913;BME280;6524;51.368;11.984;2023-04-23T10:35:56;99575.59;;;21.53;31.51
12913;BME280;6524;51.368;11.984;2023-04-23T10:40:57;99572.69;;;21.33;32.31
12913;BME280;6524;51.368;11.984;2023-04-23T10:46:00;99576.88;;;20.85;32.54
12913;BME280;6524;51.368;11.984;2023-04-23T10:51:03;99564.53;;;21.63;31.24
12913;BME280;6524;51.368;11.984;2023-04-23T10:56:05;99589.69;;;21.19;30.97
12913;BME280;6524;51.368;11.984;2023-04-23T11:01:06;99584.56;;;20.73;31.46
12913;BME280;6524;51.368;11.984;2023-04-23T11:06:18;99577.34;;;20.73;30.52
12913;BME280;6524;51.368;11.984;2023-04-23T11:11:26;99561.53;;;22.01;29.27
12913;BME280;6524;51.368;11.984;2023-04-23T11:16:37;99569.63;;;21.00;29.79
12913;BME280;6524;51.368;11.984;2023-04-23T11:22:01;99567.78;;;21.15;30.54
12913;BME280;6524;51.368;11.984;2023-04-23T11:27:06;99574.59;;;20.81;30.09
12913;BME280;6524;51.368;11.984;2023-04-23T11:32:08;99564.06;;;21.59;29.47
12913;BME280;6524;51.368;11.984;2023-04-23T11:37:13;99552.81;;;21.49;29.53
12913;BME280;6524;51.368;11.984;2023-04-23T11:42:15;99558.41;;;20.16;30.00
12913;BME280;6524;51.368;11.984;2023-04-23T11:47:17;99555.31;;;20.93;30.45
12913;BME280;6524;51.368;11.984;2023-04-23T11:52:19;99563.25;;;21.59;28.54
12913;BME280;6524;51.368;11.984;2023-04-23T11:57:20;99553.78;;;20.54;30.56
12913;BME280;6524;51.368;11.984;2023-04-23T12:02:23;99550.75;;;21.29;30.47
12913;BME280;6524;51.368;11.984;2023-04-23T12:07:31;99537.97;;;21.74;28.79
12913;BME280;6524;51.368;11.984;2023-04-23T12:12:34;99530.41;;;21.42;29.88
12913;BME280;6524;51.368;11.984;2023-04-23T12:17:37;99527.22;;;21.53;28.87
12913;BME280;6524;51.368;11.984;2023-04-23T12:22:38;99527.22;;;22.03;29.77
12913;BME280;6524;51.368;11.984;2023-04-23T12:27:39;99517.63;;;22.22;28.15
12913;BME280;6524;51.368;11.984;2023-04-23T12:32:40;99512.75;;;22.93;27.69
12913;BME280;6524;51.368;11.984;2023-04-23T12:37:40;99509.34;;;22.71;26.98
12913;BME280;6524;51.368;11.984;2023-04-23T12:42:41;99513.84;;;22.57;28.28
12913;BME280;6524;51.368;11.984;2023-04-23T12:47:41;99501.75;;;22.81;26.84
12913;BME280;6524;51.368;11.984;2023-04-23T12:52:42;99502.41;;;22.90;27.83
12913;BME280;6524;51.368;11.984;2023-04-23T12:57:42;99501.44;;;23.31;26.39
12913;BME280;6524;51.368;11.984;2023-04-23T13:02:43;99497.72;;;22.57;26.91
12913;BME280;6524;51.368;11.984;2023-04-23T13:07:43;99487.69;;;22.38;27.25
12913;BME280;6524;51.368;11.984;2023-04-23T13:12:45;99469.88;;;22.92;26.70
12913;BME280;6524;51.368;11.984;2023-04-23T13:17:45;99466.25;;;22.64;26.28
12913;BME280;6524;51.368;11.984;2023-04-23T13:22:45;99468.75;;;22.59;26.87
12913;BME280;6524;51.368;11.984;2023-04-23T13:27:46;99458.19;;;22.16;27.26
12913;BME280;6524;51.368;11.984;2023-04-23T13:32:46;99452.75;;;22.51;26.62
12913;BME280;6524;51.368;11.984;2023-04-23T13:37:47;99441.44;;;21.80;26.79
12913;BME280;6524;51.368;11.984;2023-04-23T13:42:47;99432.94;;;21.48;26.33
12913;BME280;6524;51.368;11.984;2023-04-23T13:47:49;99426.69;;;21.41;27.25
12913;BME280;6524;51.368;11.984;2023-04-23T13:52:49;99417.03;;;21.18;27.17
12913;BME280;6524;51.368;11.984;2023-04-23T13:57:50;99407.69;;;20.93;26.87
12913;BME280;6524;51.368;11.984;2023-04-23T14:02:50;99415.97;;;21.41;27.08
12913;BME280;6524;51.368;11.984;2023-04-23T14:07:51;99397.59;;;21.16;26.60
12913;BME280;6524;51.368;11.984;2023-04-23T14:12:52;99393.81;;;21.11;28.05
12913;BME280;6524;51.368;11.984;2023-04-23T14:17:53;99398.47;;;21.23;27.85
12913;BME280;6524;51.368;11.984;2023-04-23T14:23:10;99374.00;;;20.47;28.92
12913;BME280;6524;51.368;11.984;2023-04-23T14:33:26;99361.66;;;21.17;28.19
12913;BME280;6524;51.368;11.984;2023-04-23T14:38:26;99352.28;;;21.35;27.41
12913;BME280;6524;51.368;11.984;2023-04-23T14:43:26;99350.00;;;21.32;28.24
12913;BME280;6524;51.368;11.984;2023-04-23T14:48:27;99335.25;;;20.50;28.45
12913;BME280;6524;51.368;11.984;2023-04-23T14:53:28;99317.97;;;20.37;28.98
12913;BME280;6524;51.368;11.984;2023-04-23T14:58:29;99325.13;;;20.95;29.21
12913;BME280;6524;51.368;11.984;2023-04-23T15:03:29;99319.09;;;21.14;29.58
12913;BME280;6524;51.368;11.984;2023-04-23T15:08:30;99305.69;;;20.07;28.16
12913;BME280;6524;51.368;11.984;2023-04-23T15:13:37;99300.47;;;20.20;28.20
12913;BME280;6524;51.368;11.984;2023-04-23T15:18:43;99306.50;;;19.41;28.62
12913;BME280;6524;51.368;11.984;2023-04-23T15:23:43;99299.06;;;18.84;29.96
12913;BME280;6524;51.368;11.984;2023-04-23T15:28:45;99296.31;;;18.00;30.37
12913;BME280;6524;51.368;11.984;2023-04-23T15:33:51;99276.59;;;18.47;30.86
12913;BME280;6524;51.368;11.984;2023-04-23T15:38:52;99277.03;;;19.12;29.27
12913;BME280;6524;51.368;11.984;2023-04-23T15:43:52;99269.97;;;18.43;30.57
12913;BME280;6524;51.368;11.984;2023-04-23T15:48:54;99267.69;;;17.86;30.99
12913;BME280;6524;51.368;11.984;2023-04-23T15:53:54;99258.22;;;18.29;30.68
12913;BME280;6524;51.368;11.984;2023-04-23T15:58:55;99260.13;;;18.21;31.67
12913;BME280;6524;51.368;11.984;2023-04-23T16:03:55;99247.88;;;18.49;31.25
12913;BME280;6524;51.368;11.984;2023-04-23T16:08:56;99245.97;;;18.35;31.32
12913;BME280;6524;51.368;11.984;2023-04-23T16:13:57;99241.09;;;18.16;31.82
12913;BME280;6524;51.368;11.984;2023-04-23T16:18:57;99233.75;;;17.64;33.44
12913;BME280;6524;51.368;11.984;2023-04-23T16:23:57;99233.50;;;17.81;33.53
12913;BME280;6524;51.368;11.984;2023-04-23T16:28:58;99227.06;;;17.59;34.44
12913;BME280;6524;51.368;11.984;2023-04-23T16:33:59;99226.00;;;17.46;34.04
12913;BME280;6524;51.368;11.984;2023-04-23T16:39:00;99224.28;;;17.05;35.14
12913;BME280;6524;51.368;11.984;2023-04-23T16:44:01;99220.59;;;17.06;34.58
12913;BME280;6524;51.368;11.984;2023-04-23T16:49:01;99213.41;;;17.23;34.99
12913;BME280;6524;51.368;11.984;2023-04-23T16:54:02;99218.56;;;17.25;34.55
12913;BME280;6524;51.368;11.984;2023-04-23T16:59:02;99206.97;;;17.01;35.19
12913;BME280;6524;51.368;11.984;2023-04-23T17:04:03;99203.03;;;17.28;35.13
12913;BME280;6524;51.368;11.984;2023-04-23T17:09:03;99198.28;;;17.07;34.90
12913;BME280;6524;51.368;11.984;2023-04-23T17:14:05;99190.66;;;16.88;35.37
12913;BME280;6524;51.368;11.984;2023-04-23T17:19:05;99183.06;;;16.52;36.03
12913;BME280;6524;51.368;11.984;2023-04-23T17:24:05;99180.06;;;16.31;36.91
12913;BME280;6524;51.368;11.984;2023-04-23T17:29:06;99161.09;;;16.50;36.58
12913;BME280;6524;51.368;11.984;2023-04-23T17:34:06;99159.75;;;16.21;37.30
12913;BME280;6524;51.368;11.984;2023-04-23T17:39:07;99160.09;;;15.94;37.68
12913;BME280;6524;51.368;11.984;2023-04-23T17:44:07;99161.75;;;16.36;37.32
12913;BME280;6524;51.368;11.984;2023-04-23T17:49:08;99162.78;;;16.43;37.20
12913;BME280;6524;51.368;11.984;2023-04-23T17:54:09;99162.59;;;15.87;37.99
12913;BME280;6524;51.368;11.984;2023-04-23T17:59:10;99156.44;;;15.70;38.21
12913;BME280;6524;51.368;11.984;2023-04-23T18:04:10;99156.44;;;15.70;38.31
12913;BME280;6524;51.368;11.984;2023-04-23T18:09:11;99152.13;;;16.10;37.36
12913;BME280;6524;51.368;11.984;2023-04-23T18:14:11;99155.44;;;15.80;38.70
12913;BME280;6524;51.368;11.984;2023-04-23T18:19:11;99152.75;;;15.71;39.10
12913;BME280;6524;51.368;11.984;2023-04-23T18:24:12;99148.31;;;15.29;39.72
12913;BME280;6524;51.368;11.984;2023-04-23T18:29:12;99146.66;;;15.28;40.54
12913;BME280;6524;51.368;11.984;2023-04-23T18:34:15;99146.81;;;14.93;40.81
12913;BME280;6524;51.368;11.984;2023-04-23T18:39:16;99142.22;;;15.03;40.90
12913;BME280;6524;51.368;11.984;2023-04-23T18:44:17;99138.00;;;14.58;41.61
12913;BME280;6524;51.368;11.984;2023-04-23T18:49:38;99145.31;;;14.56;41.75
12913;BME280;6524;51.368;11.984;2023-04-23T18:54:42;99149.47;;;14.14;43.19
12913;BME280;6524;51.368;11.984;2023-04-23T18:59:43;99144.97;;;14.51;42.31
12913;BME280;6524;51.368;11.984;2023-04-23T19:04:43;99144.59;;;14.46;42.67
12913;BME280;6524;51.368;11.984;2023-04-23T19:09:44;99144.50;;;13.93;43.84
12913;BME280;6524;51.368;11.984;2023-04-23T19:14:45;99136.91;;;13.99;44.12
12913;BME280;6524;51.368;11.984;2023-04-23T19:19:45;99133.00;;;13.67;44.47
12913;BME280;6524;51.368;11.984;2023-04-23T19:24:45;99128.75;;;13.74;45.10
12913;BME280;6524;51.368;11.984;2023-04-23T19:29:46;99125.84;;;14.03;45.18
12913;BME280;6524;51.368;11.984;2023-04-23T19:34:48;99120.25;;;13.88;45.28
12913;BME280;6524;51.368;11.984;2023-04-23T19:39:49;99112.13;;;13.90;45.41
12913;BME280;6524;51.368;11.984;2023-04-23T19:44:49;99116.91;;;13.86;45.88
12913;BME280;6524;51.368;11.984;2023-04-23T19:49:50;99115.25;;;13.85;46.57
12913;BME280;6524;51.368;11.984;2023-04-23T19:54:50;99106.75;;;13.64;47.01
12913;BME280;6524;51.368;11.984;2023-04-23T19:59:51;99102.38;;;13.73;47.42
12913;BME280;6524;51.368;11.984;2023-04-23T20:04:52;99099.09;;;13.61;48.13
12913;BME280;6524;51.368;11.984;2023-04-23T20:09:52;99094.25;;;13.38;48.61
12913;BME280;6524;51.368;11.984;2023-04-23T20:14:53;99087.19;;;13.29;49.23
12913;BME280;6524;51.368;11.984;2023-04-23T20:19:55;99086.47;;;13.27;50.04
12913;BME280;6524;51.368;11.984;2023-04-23T20:25:00;99082.78;;;12.92;50.56
12913;BME280;6524;51.368;11.984;2023-04-23T20:30:04;99085.56;;;12.73;51.97
12913;BME280;6524;51.368;11.984;2023-04-23T20:35:08;99093.63;;;12.71;52.09
12913;BME280;6524;51.368;11.984;2023-04-23T20:40:08;99086.63;;;12.80;52.26
12913;BME280;6524;51.368;11.984;2023-04-23T20:45:10;99078.41;;;12.36;53.88
12913;BME280;6524;51.368;11.984;2023-04-23T20:50:12;99070.13;;;12.59;53.56
12913;BME280;6524;51.368;11.984;2023-04-23T20:55:13;99076.09;;;12.23;54.63
12913;BME280;6524;51.368;11.984;2023-04-23T21:00:14;99069.78;;;11.68;56.54
12913;BME280;6524;51.368;11.984;2023-04-23T21:05:14;99059.59;;;11.53;56.95
12913;BME280;6524;51.368;11.984;2023-04-23T21:10:15;99053.72;;;11.98;56.12
12913;BME280;6524;51.368;11.984;2023-04-23T21:15:16;99055.72;;;11.77;56.48
12913;BME280;6524;51.368;11.984;2023-04-23T21:20:16;99047.66;;;11.69;56.73
12913;BME280;6524;51.368;11.984;2023-04-23T21:25:16;99050.09;;;11.99;55.72
12913;BME280;6524;51.368;11.984;2023-04-23T21:30:24;99058.78;;;11.62;56.49
12913;BME280;6524;51.368;11.984;2023-04-23T21:35:29;99060.72;;;11.51;57.35
12913;BME280;6524;51.368;11.984;2023-04-23T21:40:29;99051.81;;;11.23;58.29
12913;BME280;6524;51.368;11.984;2023-04-23T21:45:31;99047.59;;;10.91;59.62
12913;BME280;6524;51.368;11.984;2023-04-23T21:50:32;99049.53;;;11.08;58.79
12913;BME280;6524;51.368;11.984;2023-04-23T21:55:32;99045.41;;;11.15;58.59
12913;BME280;6524;51.368;11.984;2023-04-23T22:00:33;99041.38;;;11.50;57.94
12913;BME280;6524;51.368;11.984;2023-04-23T22:05:34;99033.44;;;11.60;57.71
12913;BME280;6524;51.368;11.984;2023-04-23T22:10:35;99023.97;;;11.57;57.68
12913;BME280;6524;51.368;11.984;2023-04-23T22:15:42;99021.59;;;11.74;57.32
12913;BME280;6524;51.368;11.984;2023-04-23T22:20:43;99020.22;;;11.79;57.32
12913;BME280;6524;51.368;11.984;2023-04-23T22:25:47;99031.19;;;11.94;56.90
12913;BME280;6524;51.368;11.984;2023-04-23T22:30:47;99056.53;;;11.09;59.26
12913;BME280;6524;51.368;11.984;2023-04-23T22:35:48;99062.31;;;10.84;59.34
12913;BME280;6524;51.368;11.984;2023-04-23T22:40:48;99061.25;;;10.65;59.35
12913;BME280;6524;51.368;11.984;2023-04-23T22:45:48;99063.81;;;10.86;59.76
12913;BME280;6524;51.368;11.984;2023-04-23T22:50:49;99061.91;;;10.98;59.50
12913;BME280;6524;51.368;11.984;2023-04-23T22:55:50;99058.28;;;10.49;61.28
12913;BME280;6524;51.368;11.984;2023-04-23T23:00:50;99046.88;;;10.58;61.62
12913;BME280;6524;51.368;11.984;2023-04-23T23:05:50;99049.66;;;10.47;62.40
12913;BME280;6524;51.368;11.984;2023-04-23T23:10:51;99047.81;;;10.38;62.89
12913;BME280;6524;51.368;11.984;2023-04-23T23:15:51;99027.47;;;10.59;62.19
12913;BME280;6524;51.368;11.984;2023-04-23T23:20:51;99027.56;;;10.98;62.30
12913;BME280;6524;51.368;11.984;2023-04-23T23:25:52;99033.41;;;10.92;63.58
12913;BME280;6524;51.368;11.984;2023-04-23T23:30:52;99016.41;;;10.35;65.50
12913;BME280;6524;51.368;11.984;2023-04-23T23:35:54;99010.16;;;10.36;65.08
12913;BME280;6524;51.368;11.984;2023-04-23T23:40:55;99009.38;;;10.55;65.39
12913;BME280;6524;51.368;11.984;2023-04-23T23:45:55;99003.94;;;10.77;64.66
12913;BME280;6524;51.368;11.984;2023-04-23T23:50:56;98998.53;;;10.48;66.06
12913;BME280;6524;51.368;11.984;2023-04-23T23:55:56;98998.03;;;9.93;67.79
